createdAt,value
2022-10-22T00:00:54.653Z,80.17
2022-10-22T00:03:22.428Z,79.32
2022-10-22T00:05:49.699Z,79.53
2022-10-22T00:08:17.024Z,79.24
2022-10-22T00:10:44.433Z,78.87
2022-10-22T00:13:12.736Z,79.43
2022-10-22T00:15:40.029Z,79.46
2022-10-22T00:18:07.569Z,79.60
2022-10-22T00:20:34.851Z,79.81
2022-10-22T00:23:02.140Z,79.50
2022-10-22T00:25:29.619Z,79.24
2022-10-22T00:27:56.890Z,79.67
2022-10-22T00:30:24.164Z,79.12
2022-10-22T00:32:51.454Z,79.60
2022-10-22T00:35:18.800Z,79.56
2022-10-22T00:37:46.086Z,79.43
2022-10-22T00:40:15.707Z,79.46
2022-10-22T00:42:43.329Z,79.22
2022-10-22T00:45:10.486Z,79.19
2022-10-22T00:48:10.106Z,79.40
2022-10-22T00:51:06.569Z,79.41
2022-10-22T00:53:46.083Z,79.54
2022-10-22T00:56:14.011Z,79.50
2022-10-22T00:58:54.766Z,80.07
2022-10-22T01:01:30.269Z,79.45
2022-10-22T01:03:58.416Z,79.41
2022-10-22T01:06:34.226Z,79.40
2022-10-22T01:09:31.081Z,79.67
2022-10-22T01:12:35.574Z,79.82
2022-10-22T01:15:51.379Z,79.63
2022-10-22T01:19:03.672Z,79.18
2022-10-22T01:21:50.217Z,79.78
2022-10-22T01:24:35.596Z,79.67
2022-10-22T01:27:57.295Z,79.84
2022-10-22T01:30:25.526Z,79.66
2022-10-22T01:33:03.518Z,80.51
2022-10-22T01:35:39.468Z,80.30
2022-10-22T01:38:17.132Z,80.06
2022-10-22T01:40:47.675Z,80.04
2022-10-22T01:43:15.368Z,79.86
2022-10-22T01:45:54.225Z,80.29
2022-10-22T01:48:46.103Z,79.79
2022-10-22T01:52:16.343Z,79.93
2022-10-22T01:55:14.652Z,80.03
2022-10-22T01:58:24.822Z,80.08
2022-10-22T02:01:46.965Z,80.11
2022-10-22T02:05:22.301Z,80.37
2022-10-22T02:08:24.685Z,80.04
2022-10-22T02:10:54.506Z,80.69
2022-10-22T02:13:36.403Z,80.30
2022-10-22T02:16:09.787Z,80.40
2022-10-22T02:18:43.914Z,80.17
2022-10-22T02:21:11.790Z,80.14
2022-10-22T02:23:39.528Z,80.66
2022-10-22T02:26:35.754Z,80.66
2022-10-22T02:29:35.297Z,81.43
2022-10-22T02:32:05.706Z,80.57
2022-10-22T02:34:33.582Z,80.94
2022-10-22T02:37:03.337Z,80.58
2022-10-22T02:39:32.802Z,79.89
2022-10-22T02:42:03.675Z,79.73
2022-10-22T02:44:31.636Z,80.27
2022-10-22T02:46:59.752Z,79.91
2022-10-22T02:49:27.133Z,80.90
2022-10-22T02:51:54.505Z,80.70
2022-10-22T02:54:21.937Z,80.48
2022-10-22T02:56:49.350Z,80.35
2022-10-22T02:59:16.761Z,80.88
2022-10-22T03:01:44.185Z,80.60
2022-10-22T03:04:11.633Z,80.70
2022-10-22T03:06:38.962Z,80.82
2022-10-22T03:09:06.295Z,81.04
2022-10-22T03:11:33.597Z,80.93
2022-10-22T03:14:00.956Z,80.32
2022-10-22T03:16:28.423Z,80.82
2022-10-22T03:18:55.862Z,80.45
2022-10-22T03:21:53.832Z,80.46
2022-10-22T03:24:41.385Z,80.45
2022-10-22T03:27:09.813Z,80.94
2022-10-22T03:29:40.205Z,80.96
2022-10-22T03:32:07.888Z,80.43
2022-10-22T03:34:35.844Z,80.40
2022-10-22T03:37:03.236Z,80.15
2022-10-22T03:39:35.061Z,80.40
2022-10-22T03:42:06.405Z,80.19
2022-10-22T03:44:36.432Z,80.59
2022-10-22T03:47:04.388Z,80.80
2022-10-22T03:49:31.932Z,80.50
2022-10-22T03:52:26.839Z,80.51
2022-10-22T03:54:54.322Z,80.36
2022-10-22T03:57:21.639Z,80.32
2022-10-22T03:59:49.057Z,80.46
2022-10-22T04:02:16.670Z,80.44
2022-10-22T04:04:44.077Z,80.71
2022-10-22T04:07:11.474Z,79.49
2022-10-22T04:09:38.841Z,79.89
2022-10-22T04:12:07.967Z,79.53
2022-10-22T04:14:35.353Z,80.17
2022-10-22T04:17:02.626Z,80.27
2022-10-22T04:19:29.917Z,80.38
2022-10-22T04:22:00.429Z,80.25
2022-10-22T04:24:27.992Z,79.91
2022-10-22T04:26:55.974Z,80.01
2022-10-22T04:29:24.739Z,79.95
2022-10-22T04:31:52.261Z,80.17
2022-10-22T04:34:19.702Z,80.35
2022-10-22T04:36:47.065Z,80.40
2022-10-22T04:39:15.476Z,80.22
2022-10-22T04:41:43.703Z,79.84
2022-10-22T04:44:13.784Z,79.94
2022-10-22T04:46:43.784Z,79.75
2022-10-22T04:49:11.329Z,80.59
2022-10-22T04:51:38.673Z,80.56
2022-10-22T04:54:06.225Z,80.40
2022-10-22T04:56:33.517Z,80.36
2022-10-22T04:59:08.971Z,80.15
2022-10-22T05:01:44.381Z,80.11
2022-10-22T05:04:19.610Z,80.62
2022-10-22T05:06:47.401Z,80.28
2022-10-22T05:09:20.569Z,79.98
2022-10-22T05:11:53.524Z,80.61
2022-10-22T05:14:25.096Z,80.17
2022-10-22T05:16:53.611Z,79.64
2022-10-22T05:19:31.483Z,79.69
2022-10-22T05:22:04.983Z,79.35
2022-10-22T05:24:35.412Z,79.69
2022-10-22T05:27:02.725Z,79.85
2022-10-22T05:29:30.209Z,79.69
2022-10-22T05:31:57.804Z,79.63
2022-10-22T05:34:25.081Z,79.82
2022-10-22T05:36:52.357Z,79.72
2022-10-22T05:39:19.644Z,79.70
2022-10-22T05:41:46.990Z,79.72
2022-10-22T05:44:15.320Z,79.64
2022-10-22T05:46:43.508Z,79.83
2022-10-22T05:49:15.628Z,79.93
2022-10-22T05:51:43.207Z,80.37
2022-10-22T05:54:22.087Z,80.46
2022-10-22T05:56:49.579Z,80.43
2022-10-22T05:59:16.902Z,80.33
2022-10-22T06:01:44.291Z,80.36
2022-10-22T06:04:13.831Z,80.85
2022-10-22T06:06:53.308Z,80.65
2022-10-22T06:12:23.564Z,80.66
2022-10-22T06:14:50.957Z,80.30
2022-10-22T06:17:19.700Z,80.45
2022-10-22T06:19:46.976Z,80.67
2022-10-22T06:22:14.230Z,80.76
2022-10-22T06:24:42.969Z,80.40
2022-10-22T06:27:12.380Z,80.36
2022-10-22T06:29:39.735Z,80.35
2022-10-22T06:32:06.997Z,80.39
2022-10-22T06:34:34.320Z,80.72
2022-10-22T06:37:01.587Z,80.75
2022-10-22T06:39:28.999Z,80.89
2022-10-22T06:41:56.291Z,80.60
2022-10-22T06:44:23.961Z,80.40
2022-10-22T06:46:53.038Z,80.99
2022-10-22T06:49:21.810Z,81.15
2022-10-22T06:51:54.464Z,80.67
2022-10-22T06:54:23.188Z,80.70
2022-10-22T06:56:50.587Z,80.88
2022-10-22T06:59:17.973Z,81.15
2022-10-22T07:01:45.591Z,81.22
2022-10-22T07:04:12.988Z,81.17
2022-10-22T07:19:31.008Z,83.07
2022-10-22T07:21:58.583Z,83.41
2022-10-22T07:24:26.086Z,83.35
2022-10-22T07:26:54.778Z,83.04
2022-10-22T07:29:22.223Z,82.87
2022-10-22T07:31:49.564Z,82.56
2022-10-22T07:34:17.412Z,82.49
2022-10-22T07:36:44.904Z,82.14
2022-10-22T07:39:12.213Z,82.47
2022-10-22T07:41:39.528Z,82.02
2022-10-22T07:44:06.804Z,82.02
2022-10-22T07:46:35.270Z,81.94
2022-10-22T07:49:02.712Z,82.13
2022-10-22T07:51:30.059Z,81.72
2022-10-22T07:53:57.346Z,81.88
2022-10-22T07:56:24.669Z,81.57
2022-10-22T07:58:52.073Z,81.07
2022-10-22T08:01:19.505Z,81.06
2022-10-22T08:03:47.626Z,81.08
2022-10-22T08:06:15.714Z,80.72
2022-10-22T08:08:45.717Z,80.23
2022-10-22T08:11:13.279Z,80.56
2022-10-22T08:13:45.047Z,80.09
2022-10-22T08:16:14.518Z,79.69
2022-10-22T08:18:42.089Z,79.24
2022-10-22T08:21:09.595Z,79.04
2022-10-22T08:23:37.159Z,78.65
2022-10-22T08:26:05.003Z,77.80
2022-10-22T08:28:36.909Z,77.66
2022-10-22T08:31:08.594Z,77.08
2022-10-22T08:33:36.757Z,76.79
2022-10-22T08:36:04.711Z,75.72
2022-10-22T08:38:31.971Z,75.21
2022-10-22T08:41:23.412Z,75.26
2022-10-22T08:44:55.745Z,75.05
2022-10-22T08:48:09.284Z,74.59
2022-10-22T08:50:46.477Z,74.45
2022-10-22T08:54:05.526Z,73.24
2022-10-22T08:56:36.661Z,73.23
2022-10-22T08:59:27.364Z,72.85
2022-10-22T09:01:55.152Z,72.45
2022-10-22T09:04:43.588Z,71.62
2022-10-22T09:07:11.421Z,71.84
2022-10-22T09:09:49.283Z,70.66
2022-10-22T09:12:20.265Z,69.98
2022-10-22T09:14:48.034Z,69.33
2022-10-22T09:17:37.520Z,68.48
2022-10-22T09:21:09.847Z,67.72
2022-10-22T09:24:06.699Z,66.20
2022-10-22T09:26:40.860Z,65.49
2022-10-22T09:29:19.949Z,64.76
2022-10-22T09:31:47.631Z,63.48
2022-10-22T09:34:22.235Z,62.57
2022-10-22T09:37:09.632Z,62.59
2022-10-22T09:39:48.401Z,61.76
2022-10-22T09:42:19.843Z,61.29
2022-10-22T09:44:59.831Z,61.12
2022-10-22T09:48:00.457Z,59.90
2022-10-22T09:50:48.436Z,59.31
2022-10-22T09:53:28.756Z,59.99
2022-10-22T09:56:06.558Z,58.67
2022-10-22T09:58:50.270Z,58.87
2022-10-22T10:01:35.609Z,57.25
2022-10-22T10:04:17.400Z,57.45
2022-10-22T10:06:45.712Z,57.20
2022-10-22T10:09:23.133Z,55.43
2022-10-22T10:12:14.097Z,56.42
2022-10-22T10:15:33.987Z,55.10
2022-10-22T10:19:00.871Z,54.03
2022-10-22T10:22:14.289Z,53.59
2022-10-22T10:25:24.028Z,52.91
2022-10-22T10:28:44.888Z,50.58
2022-10-22T10:31:33.221Z,50.50
2022-10-22T10:35:08.971Z,49.16
2022-10-22T10:37:55.233Z,47.81
2022-10-22T10:41:08.345Z,47.91
2022-10-22T10:44:34.976Z,47.78
2022-10-22T10:47:54.159Z,47.26
2022-10-22T10:50:49.932Z,46.09
2022-10-22T10:54:19.369Z,45.41
2022-10-22T10:57:08.207Z,45.17
2022-10-22T11:00:07.126Z,44.25
2022-10-22T11:03:29.079Z,43.17
2022-10-22T11:06:03.285Z,43.63
2022-10-22T11:08:39.626Z,44.40
2022-10-22T11:11:22.656Z,42.15
2022-10-22T11:14:38.992Z,41.45
2022-10-22T11:17:18.597Z,41.37
2022-10-22T11:20:48.613Z,41.63
2022-10-22T11:23:50.576Z,44.19
2022-10-22T11:27:02.084Z,44.87
2022-10-22T11:29:47.414Z,41.94
2022-10-22T11:32:23.587Z,42.08
2022-10-22T11:35:02.772Z,41.21
2022-10-22T11:37:36.344Z,40.30
2022-10-22T11:40:32.736Z,40.01
2022-10-22T11:43:12.403Z,39.76
2022-10-22T11:45:43.144Z,39.89
2022-10-22T11:48:10.152Z,39.28
2022-10-22T11:51:01.543Z,37.51
2022-10-22T11:53:39.043Z,38.67
2022-10-22T11:56:10.703Z,38.22
2022-10-22T11:58:39.348Z,37.63
2022-10-22T12:01:09.304Z,36.40
2022-10-22T12:03:58.377Z,35.92
2022-10-22T12:06:28.120Z,37.75
2022-10-22T12:09:00.052Z,37.21
2022-10-22T12:11:47.780Z,35.98
2022-10-22T12:14:50.683Z,36.93
2022-10-22T12:17:21.009Z,37.21
2022-10-22T12:20:13.012Z,37.17
2022-10-22T12:22:41.228Z,35.31
2022-10-22T12:25:35.540Z,36.43
2022-10-22T12:28:03.560Z,36.30
2022-10-22T12:30:36.523Z,36.18
2022-10-22T12:33:17.976Z,34.69
2022-10-22T12:35:49.028Z,33.44
2022-10-22T12:38:24.089Z,34.15
2022-10-22T12:40:56.866Z,34.24
2022-10-22T12:43:30.762Z,34.29
2022-10-22T12:45:59.896Z,34.74
2022-10-22T12:48:37.356Z,32.90
2022-10-22T12:51:09.715Z,34.87
2022-10-22T12:53:45.436Z,33.89
2022-10-22T12:56:20.817Z,32.97
2022-10-22T12:59:06.768Z,32.73
2022-10-22T13:01:42.674Z,33.42
2022-10-22T13:04:26.672Z,33.88
2022-10-22T13:07:21.962Z,32.86
2022-10-22T13:10:01.621Z,33.29
2022-10-22T13:12:36.990Z,32.20
2022-10-22T13:15:27.473Z,31.65
2022-10-22T13:18:22.647Z,31.92
2022-10-22T13:21:03.496Z,32.17
2022-10-22T13:23:34.400Z,32.96
2022-10-22T13:26:22.200Z,33.19
2022-10-22T13:28:57.223Z,33.28
2022-10-22T13:31:36.307Z,32.83
2022-10-22T13:34:11.713Z,33.26
2022-10-22T13:36:41.280Z,35.60
2022-10-22T13:39:19.180Z,34.98
2022-10-22T13:41:46.909Z,34.28
2022-10-22T13:44:14.179Z,35.01
2022-10-22T13:46:43.193Z,36.15
2022-10-22T13:49:19.752Z,36.21
2022-10-22T13:51:47.608Z,37.24
2022-10-22T13:54:23.255Z,38.03
2022-10-22T13:56:50.615Z,37.82
2022-10-22T13:59:21.203Z,38.46
2022-10-22T14:01:51.346Z,39.06
2022-10-22T14:04:18.613Z,39.77
2022-10-22T14:06:45.920Z,40.54
2022-10-22T14:09:16.373Z,40.88
2022-10-22T14:11:43.738Z,40.92
2022-10-22T14:14:14.210Z,41.20
2022-10-22T14:16:41.838Z,42.07
2022-10-22T14:19:16.783Z,42.07
2022-10-22T14:21:44.307Z,42.75
2022-10-22T14:24:13.217Z,42.58
2022-10-22T14:26:41.283Z,43.18
2022-10-22T14:29:10.566Z,43.19
2022-10-22T14:31:42.537Z,43.69
2022-10-22T14:34:16.132Z,44.00
2022-10-22T14:36:44.280Z,44.06
2022-10-22T14:39:13.622Z,44.15
2022-10-22T14:41:41.374Z,44.37
2022-10-22T14:44:14.639Z,45.16
2022-10-22T14:46:44.039Z,45.38
2022-10-22T14:49:11.429Z,45.80
2022-10-22T14:51:39.225Z,46.03
2022-10-22T14:54:07.472Z,46.14
2022-10-22T14:56:38.584Z,46.27
2022-10-22T14:59:05.948Z,46.45
2022-10-22T15:01:34.004Z,46.44
2022-10-22T15:04:01.259Z,46.13
2022-10-22T15:06:28.573Z,46.26
2022-10-22T15:08:55.907Z,46.64
2022-10-22T15:11:23.323Z,46.16
2022-10-22T15:13:51.501Z,46.15
2022-10-22T15:16:19.212Z,46.09
2022-10-22T15:18:46.612Z,45.82
2022-10-22T15:21:21.899Z,46.02
2022-10-22T15:23:49.844Z,45.81
2022-10-22T15:26:17.851Z,45.48
2022-10-22T15:28:45.168Z,45.41
2022-10-22T15:31:15.180Z,45.01
2022-10-22T15:33:43.749Z,44.69
2022-10-22T15:36:17.055Z,45.03
2022-10-22T15:38:44.342Z,44.54
2022-10-22T15:41:12.644Z,44.25
2022-10-22T15:43:41.515Z,45.01
2022-10-22T15:46:19.493Z,45.26
2022-10-22T15:48:47.063Z,45.56
2022-10-22T15:51:19.022Z,45.08
2022-10-22T15:53:59.071Z,45.73
2022-10-22T15:56:29.648Z,45.89
2022-10-22T15:59:04.007Z,45.94
2022-10-22T16:01:35.215Z,46.80
2022-10-22T16:04:03.036Z,47.26
2022-10-22T16:06:37.554Z,48.00
2022-10-22T16:09:14.004Z,48.14
2022-10-22T16:11:42.623Z,49.09
2022-10-22T16:14:17.549Z,49.24
2022-10-22T16:16:53.320Z,49.62
2022-10-22T16:19:25.759Z,49.60
2022-10-22T16:21:56.411Z,50.05
2022-10-22T16:24:23.793Z,51.13
2022-10-22T16:26:53.143Z,50.79
2022-10-22T16:29:20.446Z,50.96
2022-10-22T16:31:47.834Z,51.27
2022-10-22T16:34:15.158Z,52.19
2022-10-22T16:36:44.105Z,52.27
2022-10-22T16:39:11.501Z,51.85
2022-10-22T16:41:40.396Z,52.11
2022-10-22T16:44:09.857Z,52.69
2022-10-22T16:46:38.562Z,53.05
2022-10-22T16:49:07.392Z,53.79
2022-10-22T16:51:35.879Z,53.50
2022-10-22T16:54:05.571Z,53.48
2022-10-22T16:56:37.527Z,54.15
2022-10-22T16:59:04.808Z,55.02
2022-10-22T17:01:34.745Z,54.94
2022-10-22T17:04:04.153Z,54.65
2022-10-22T17:06:31.498Z,55.10
2022-10-22T17:08:58.805Z,54.98
2022-10-22T17:11:26.450Z,55.60
2022-10-22T17:13:54.960Z,54.91
2022-10-22T17:16:24.970Z,55.58
2022-10-22T17:18:54.959Z,55.52
2022-10-22T17:21:23.725Z,55.75
2022-10-22T17:23:58.963Z,55.67
2022-10-22T17:26:27.109Z,56.48
2022-10-22T17:28:55.281Z,56.86
2022-10-22T17:31:37.492Z,57.45
2022-10-22T17:34:10.323Z,57.24
2022-10-22T17:36:37.902Z,57.45
2022-10-22T17:39:08.604Z,57.54
2022-10-22T17:41:37.955Z,57.21
2022-10-22T17:44:09.245Z,57.37
2022-10-22T17:46:37.293Z,57.69
2022-10-22T17:49:18.189Z,57.56
2022-10-22T17:51:46.891Z,57.45
2022-10-22T17:54:15.126Z,57.59
2022-10-22T17:56:42.572Z,57.89
2022-10-22T17:59:15.160Z,58.09
2022-10-22T18:01:45.644Z,57.96
2022-10-22T18:04:19.507Z,57.51
2022-10-22T18:06:48.775Z,57.77
2022-10-22T18:09:19.299Z,58.38
2022-10-22T18:11:50.798Z,57.87
2022-10-22T18:14:23.587Z,58.27
2022-10-22T18:16:52.316Z,58.11
2022-10-22T18:19:23.323Z,58.09
2022-10-22T18:21:50.705Z,57.90
2022-10-22T18:24:18.763Z,58.21
2022-10-22T18:26:46.126Z,58.58
2022-10-22T18:29:18.468Z,58.99
2022-10-22T18:31:46.753Z,58.96
2022-10-22T18:34:14.708Z,58.90
2022-10-22T18:36:42.634Z,58.98
2022-10-22T18:39:15.668Z,59.64
2022-10-22T18:41:43.663Z,59.59
2022-10-22T18:44:15.097Z,59.31
2022-10-22T18:46:42.744Z,59.86
2022-10-22T18:49:19.361Z,60.02
2022-10-22T18:51:52.522Z,59.23
2022-10-22T18:54:23.689Z,59.76
2022-10-22T18:57:02.561Z,59.91
2022-10-22T18:59:31.169Z,60.05
2022-10-22T19:01:59.634Z,60.22
2022-10-22T19:04:33.580Z,60.28
2022-10-22T19:07:01.036Z,59.92
2022-10-22T19:09:28.867Z,59.83
2022-10-22T19:11:56.256Z,60.26
2022-10-22T19:14:23.574Z,60.59
2022-10-22T19:16:50.888Z,60.57
2022-10-22T19:19:21.789Z,60.58
2022-10-22T19:21:49.749Z,61.28
2022-10-22T19:24:20.551Z,61.85
2022-10-22T19:26:49.737Z,61.55
2022-10-22T19:29:20.726Z,61.89
2022-10-22T19:31:50.990Z,61.88
2022-10-22T19:34:19.141Z,62.27
2022-10-22T19:36:46.698Z,61.57
2022-10-22T19:39:18.270Z,61.71
2022-10-22T19:41:45.862Z,61.63
2022-10-22T19:44:13.273Z,62.19
2022-10-22T19:46:42.133Z,62.17
2022-10-22T19:49:11.050Z,62.14
2022-10-22T19:51:40.108Z,62.08
2022-10-22T19:54:18.408Z,61.67
2022-10-22T19:56:46.997Z,62.02
2022-10-22T19:59:19.620Z,62.54
2022-10-22T20:01:46.967Z,61.99
2022-10-22T20:04:17.633Z,62.27
2022-10-22T20:06:46.058Z,62.40
2022-10-22T20:09:14.377Z,62.50
2022-10-22T20:11:41.772Z,62.37
2022-10-22T20:14:09.949Z,62.62
2022-10-22T20:16:38.384Z,63.01
2022-10-22T20:19:08.605Z,63.01
2022-10-22T20:21:37.389Z,62.34
2022-10-22T20:24:05.156Z,63.06
2022-10-22T20:26:32.693Z,63.15
2022-10-22T20:29:00.348Z,63.78
2022-10-22T20:31:33.105Z,63.54
2022-10-22T20:34:02.050Z,63.58
2022-10-22T20:36:31.965Z,63.70
2022-10-22T20:39:10.903Z,63.63
2022-10-22T20:41:40.419Z,63.98
2022-10-22T20:44:17.557Z,63.66
2022-10-22T20:46:45.461Z,63.85
2022-10-22T20:49:17.251Z,63.84
2022-10-22T20:51:45.320Z,64.53
2022-10-22T20:54:15.424Z,65.08
2022-10-22T20:56:44.079Z,64.43
2022-10-22T20:59:12.371Z,64.56
2022-10-22T21:01:50.822Z,64.94
2022-10-22T21:04:21.426Z,65.49
2022-10-22T21:06:50.279Z,65.40
2022-10-22T21:09:17.804Z,65.59
2022-10-22T21:11:45.928Z,65.07
2022-10-22T21:14:19.852Z,65.06
2022-10-22T21:16:50.839Z,65.38
2022-10-22T21:19:20.229Z,65.50
2022-10-22T21:21:47.492Z,65.78
2022-10-22T21:24:14.968Z,65.40
2022-10-22T21:26:45.193Z,65.67
2022-10-22T21:29:13.727Z,65.88
2022-10-22T21:31:41.068Z,66.09
2022-10-22T21:34:08.569Z,66.27
2022-10-22T21:36:35.896Z,66.10
2022-10-22T21:39:03.512Z,66.69
2022-10-22T21:41:31.030Z,66.78
2022-10-22T21:43:58.348Z,66.64
2022-10-22T21:46:28.448Z,66.65
2022-10-22T21:49:02.863Z,66.98
2022-10-22T21:51:35.290Z,66.77
2022-10-22T21:54:02.619Z,66.85
2022-10-22T21:56:34.713Z,66.72
2022-10-22T21:59:05.003Z,66.94
2022-10-22T22:01:33.128Z,67.75
2022-10-22T22:04:01.036Z,67.75
2022-10-22T22:06:33.161Z,68.01
2022-10-22T22:09:04.421Z,67.61
2022-10-22T22:11:32.145Z,67.52
2022-10-22T22:14:00.447Z,67.43
2022-10-22T22:16:33.000Z,67.43
2022-10-22T22:19:06.616Z,68.23
2022-10-22T22:21:40.620Z,67.40
2022-10-22T22:24:12.551Z,67.22
2022-10-22T22:26:40.608Z,66.88
2022-10-22T22:29:07.876Z,67.54
2022-10-22T22:31:37.360Z,66.76
2022-10-22T22:34:14.666Z,66.54
2022-10-22T22:36:49.278Z,66.42
2022-10-22T22:39:23.463Z,66.49
2022-10-22T22:41:51.416Z,66.45
2022-10-22T22:44:18.700Z,66.44
2022-10-22T22:46:45.987Z,66.29
2022-10-22T22:49:14.227Z,66.62
2022-10-22T22:51:41.848Z,66.18
2022-10-22T22:54:12.595Z,66.45
2022-10-22T22:56:40.023Z,66.64
2022-10-22T22:59:07.603Z,66.54
2022-10-22T23:01:38.841Z,66.82
2022-10-22T23:04:17.591Z,66.75
2022-10-22T23:06:45.876Z,66.59
2022-10-22T23:11:48.474Z,66.49
2022-10-22T23:14:19.752Z,66.05
2022-10-22T23:16:53.696Z,66.16
2022-10-22T23:19:23.335Z,66.62
2022-10-22T23:21:57.289Z,66.60
2022-10-22T23:24:29.527Z,66.39
2022-10-22T23:27:02.784Z,65.98
2022-10-22T23:29:35.834Z,66.49
2022-10-22T23:32:11.935Z,66.20
2022-10-22T23:34:39.192Z,66.43
2022-10-22T23:37:07.777Z,66.15
2022-10-22T23:39:35.166Z,66.20
2022-10-22T23:42:02.436Z,66.69
2022-10-22T23:44:29.763Z,66.56
2022-10-22T23:46:57.016Z,66.10
2022-10-22T23:49:24.352Z,66.68
2022-10-22T23:51:51.655Z,66.34
2022-10-22T23:54:20.082Z,66.98
2022-10-22T23:56:47.470Z,67.07
